sensor_id;sensor_type;location;lat;lon;timestamp;P1;durP1;ratioP1;P2;durP2;ratioP2
61017;SDS011;48171;51.550;5.434;2023-05-20T00:02:06;14.38;;;5.63;;
61017;SDS011;48171;51.550;5.434;2023-05-20T00:04:32;10.27;;;5.80;;
61017;SDS011;48171;51.550;5.434;2023-05-20T00:06:57;11.95;;;6.07;;
61017;SDS011;48171;51.550;5.434;2023-05-20T00:09:22;14.63;;;5.25;;
61017;SDS011;48171;51.550;5.434;2023-05-20T00:11:48;10.50;;;5.63;;
61017;SDS011;48171;51.550;5.434;2023-05-20T00:14:13;12.02;;;5.75;;
61017;SDS011;48171;51.550;5.434;2023-05-20T00:16:38;16.83;;;6.38;;
61017;SDS011;48171;51.550;5.434;2023-05-20T00:19:04;12.70;;;5.72;;
61017;SDS011;48171;51.550;5.434;2023-05-20T00:21:29;16.38;;;5.93;;
61017;SDS011;48171;51.550;5.434;2023-05-20T00:23:55;15.45;;;6.50;;
61017;SDS011;48171;51.550;5.434;2023-05-20T00:26:20;14.48;;;6.25;;
61017;SDS011;48171;51.550;5.434;2023-05-20T00:28:45;13.93;;;6.53;;
61017;SDS011;48171;51.550;5.434;2023-05-20T00:31:11;17.42;;;6.32;;
61017;SDS011;48171;51.550;5.434;2023-05-20T00:33:36;17.85;;;6.53;;
61017;SDS011;48171;51.550;5.434;2023-05-20T00:36:02;16.48;;;6.70;;
61017;SDS011;48171;51.550;5.434;2023-05-20T00:38:27;14.90;;;6.75;;
61017;SDS011;48171;51.550;5.434;2023-05-20T00:40:53;17.02;;;7.07;;
61017;SDS011;48171;51.550;5.434;2023-05-20T00:43:18;15.85;;;6.60;;
61017;SDS011;48171;51.550;5.434;2023-05-20T00:45:45;15.55;;;7.57;;
61017;SDS011;48171;51.550;5.434;2023-05-20T00:48:10;17.33;;;6.85;;
61017;SDS011;48171;51.550;5.434;2023-05-20T00:50:36;17.10;;;7.70;;
61017;SDS011;48171;51.550;5.434;2023-05-20T00:53:02;15.38;;;6.95;;
61017;SDS011;48171;51.550;5.434;2023-05-20T00:55:28;16.42;;;6.53;;
61017;SDS011;48171;51.550;5.434;2023-05-20T00:57:53;15.27;;;6.95;;
61017;SDS011;48171;51.550;5.434;2023-05-20T01:00:19;20.67;;;7.50;;
61017;SDS011;48171;51.550;5.434;2023-05-20T01:02:44;18.63;;;7.35;;
61017;SDS011;48171;51.550;5.434;2023-05-20T01:05:09;18.73;;;7.38;;
61017;SDS011;48171;51.550;5.434;2023-05-20T01:07:35;18.10;;;7.65;;
61017;SDS011;48171;51.550;5.434;2023-05-20T01:10:00;13.75;;;7.53;;
61017;SDS011;48171;51.550;5.434;2023-05-20T01:12:30;16.67;;;8.02;;
61017;SDS011;48171;51.550;5.434;2023-05-20T01:15:09;19.90;;;8.48;;
61017;SDS011;48171;51.550;5.434;2023-05-20T01:17:45;16.85;;;7.55;;
61017;SDS011;48171;51.550;5.434;2023-05-20T01:20:12;16.90;;;7.57;;
61017;SDS011;48171;51.550;5.434;2023-05-20T01:25:14;16.27;;;7.60;;
61017;SDS011;48171;51.550;5.434;2023-05-20T01:27:39;17.15;;;8.10;;
61017;SDS011;48171;51.550;5.434;2023-05-20T01:30:05;19.80;;;7.57;;
61017;SDS011;48171;51.550;5.434;2023-05-20T01:32:33;21.27;;;8.27;;
61017;SDS011;48171;51.550;5.434;2023-05-20T01:35:02;24.88;;;8.20;;
61017;SDS011;48171;51.550;5.434;2023-05-20T01:37:28;21.48;;;8.60;;
61017;SDS011;48171;51.550;5.434;2023-05-20T01:39:55;15.73;;;7.80;;
61017;SDS011;48171;51.550;5.434;2023-05-20T01:42:21;17.90;;;8.90;;
61017;SDS011;48171;51.550;5.434;2023-05-20T01:44:50;19.38;;;8.30;;
61017;SDS011;48171;51.550;5.434;2023-05-20T01:47:15;19.48;;;7.82;;
61017;SDS011;48171;51.550;5.434;2023-05-20T01:49:41;20.27;;;7.97;;
61017;SDS011;48171;51.550;5.434;2023-05-20T01:52:06;24.60;;;8.75;;
61017;SDS011;48171;51.550;5.434;2023-05-20T01:54:31;23.90;;;8.60;;
61017;SDS011;48171;51.550;5.434;2023-05-20T01:56:56;22.63;;;8.68;;
61017;SDS011;48171;51.550;5.434;2023-05-20T01:59:22;21.85;;;8.70;;
61017;SDS011;48171;51.550;5.434;2023-05-20T02:01:47;22.00;;;8.65;;
61017;SDS011;48171;51.550;5.434;2023-05-20T02:04:12;21.25;;;8.15;;
61017;SDS011;48171;51.550;5.434;2023-05-20T02:06:38;21.05;;;8.68;;
61017;SDS011;48171;51.550;5.434;2023-05-20T02:09:03;20.75;;;8.23;;
61017;SDS011;48171;51.550;5.434;2023-05-20T02:11:29;22.25;;;8.63;;
61017;SDS011;48171;51.550;5.434;2023-05-20T02:13:54;19.77;;;8.55;;
61017;SDS011;48171;51.550;5.434;2023-05-20T02:16:20;21.02;;;9.10;;
61017;SDS011;48171;51.550;5.434;2023-05-20T02:18:45;16.75;;;8.82;;
61017;SDS011;48171;51.550;5.434;2023-05-20T02:21:10;25.25;;;9.07;;
61017;SDS011;48171;51.550;5.434;2023-05-20T02:23:35;23.10;;;8.98;;
61017;SDS011;48171;51.550;5.434;2023-05-20T02:26:01;18.27;;;8.93;;
61017;SDS011;48171;51.550;5.434;2023-05-20T02:28:26;23.98;;;9.32;;
61017;SDS011;48171;51.550;5.434;2023-05-20T02:30:51;20.65;;;8.65;;
61017;SDS011;48171;51.550;5.434;2023-05-20T02:33:17;19.02;;;8.70;;
61017;SDS011;48171;51.550;5.434;2023-05-20T02:35:45;20.50;;;9.00;;
61017;SDS011;48171;51.550;5.434;2023-05-20T02:38:11;23.38;;;8.85;;
61017;SDS011;48171;51.550;5.434;2023-05-20T02:40:36;20.40;;;8.30;;
61017;SDS011;48171;51.550;5.434;2023-05-20T02:43:02;20.73;;;8.93;;
61017;SDS011;48171;51.550;5.434;2023-05-20T02:45:27;25.65;;;8.85;;
61017;SDS011;48171;51.550;5.434;2023-05-20T02:47:53;23.90;;;9.30;;
61017;SDS011;48171;51.550;5.434;2023-05-20T02:50:18;19.92;;;8.38;;
61017;SDS011;48171;51.550;5.434;2023-05-20T02:52:43;21.77;;;9.02;;
61017;SDS011;48171;51.550;5.434;2023-05-20T02:55:09;21.70;;;9.07;;
61017;SDS011;48171;51.550;5.434;2023-05-20T02:57:35;19.55;;;8.40;;
61017;SDS011;48171;51.550;5.434;2023-05-20T03:00:02;20.70;;;8.55;;
61017;SDS011;48171;51.550;5.434;2023-05-20T03:02:30;25.20;;;8.98;;
61017;SDS011;48171;51.550;5.434;2023-05-20T03:04:55;21.30;;;8.45;;
61017;SDS011;48171;51.550;5.434;2023-05-20T03:07:20;22.50;;;8.98;;
61017;SDS011;48171;51.550;5.434;2023-05-20T03:09:46;24.45;;;8.52;;
61017;SDS011;48171;51.550;5.434;2023-05-20T03:12:11;21.10;;;8.57;;
61017;SDS011;48171;51.550;5.434;2023-05-20T03:14:37;21.45;;;8.13;;
61017;SDS011;48171;51.550;5.434;2023-05-20T03:17:02;20.95;;;8.57;;
61017;SDS011;48171;51.550;5.434;2023-05-20T03:19:27;20.45;;;8.70;;
61017;SDS011;48171;51.550;5.434;2023-05-20T03:21:52;19.48;;;8.65;;
61017;SDS011;48171;51.550;5.434;2023-05-20T03:24:18;18.23;;;7.82;;
61017;SDS011;48171;51.550;5.434;2023-05-20T03:26:43;20.77;;;8.18;;
61017;SDS011;48171;51.550;5.434;2023-05-20T03:29:10;18.40;;;8.13;;
61017;SDS011;48171;51.550;5.434;2023-05-20T03:31:35;18.02;;;8.05;;
61017;SDS011;48171;51.550;5.434;2023-05-20T03:34:01;17.45;;;7.68;;
61017;SDS011;48171;51.550;5.434;2023-05-20T03:36:26;21.73;;;8.63;;
61017;SDS011;48171;51.550;5.434;2023-05-20T03:38:52;19.13;;;8.43;;
61017;SDS011;48171;51.550;5.434;2023-05-20T03:41:17;22.70;;;8.88;;
61017;SDS011;48171;51.550;5.434;2023-05-20T03:43:42;18.85;;;8.05;;
61017;SDS011;48171;51.550;5.434;2023-05-20T03:46:08;22.85;;;8.10;;
61017;SDS011;48171;51.550;5.434;2023-05-20T03:48:33;16.83;;;7.78;;
61017;SDS011;48171;51.550;5.434;2023-05-20T03:50:58;25.80;;;8.52;;
61017;SDS011;48171;51.550;5.434;2023-05-20T03:53:24;17.67;;;7.47;;
61017;SDS011;48171;51.550;5.434;2023-05-20T03:55:49;18.67;;;7.28;;
61017;SDS011;48171;51.550;5.434;2023-05-20T03:58:14;17.20;;;7.85;;
61017;SDS011;48171;51.550;5.434;2023-05-20T04:00:40;18.83;;;7.72;;
61017;SDS011;48171;51.550;5.434;2023-05-20T04:03:05;19.02;;;7.90;;
61017;SDS011;48171;51.550;5.434;2023-05-20T04:05:31;22.30;;;8.15;;
61017;SDS011;48171;51.550;5.434;2023-05-20T04:07:56;19.15;;;7.63;;
61017;SDS011;48171;51.550;5.434;2023-05-20T04:10:21;16.35;;;8.23;;
61017;SDS011;48171;51.550;5.434;2023-05-20T04:12:47;23.10;;;7.88;;
61017;SDS011;48171;51.550;5.434;2023-05-20T04:15:12;19.60;;;8.30;;
61017;SDS011;48171;51.550;5.434;2023-05-20T04:17:38;15.35;;;7.82;;
61017;SDS011;48171;51.550;5.434;2023-05-20T04:20:04;19.02;;;7.97;;
61017;SDS011;48171;51.550;5.434;2023-05-20T04:22:31;20.15;;;7.60;;
61017;SDS011;48171;51.550;5.434;2023-05-20T04:24:57;20.20;;;7.97;;
61017;SDS011;48171;51.550;5.434;2023-05-20T04:27:23;19.88;;;7.78;;
61017;SDS011;48171;51.550;5.434;2023-05-20T04:29:49;19.58;;;8.63;;
61017;SDS011;48171;51.550;5.434;2023-05-20T04:32:17;21.33;;;8.35;;
61017;SDS011;48171;51.550;5.434;2023-05-20T04:34:43;17.77;;;8.10;;
61017;SDS011;48171;51.550;5.434;2023-05-20T04:37:09;16.90;;;7.72;;
61017;SDS011;48171;51.550;5.434;2023-05-20T04:39:35;22.17;;;8.30;;
61017;SDS011;48171;51.550;5.434;2023-05-20T04:42:00;17.92;;;8.38;;
61017;SDS011;48171;51.550;5.434;2023-05-20T04:44:26;18.95;;;7.85;;
61017;SDS011;48171;51.550;5.434;2023-05-20T04:46:52;17.67;;;8.18;;
61017;SDS011;48171;51.550;5.434;2023-05-20T04:49:17;16.85;;;7.72;;
61017;SDS011;48171;51.550;5.434;2023-05-20T04:51:43;19.77;;;8.00;;
61017;SDS011;48171;51.550;5.434;2023-05-20T04:54:08;17.15;;;7.82;;
61017;SDS011;48171;51.550;5.434;2023-05-20T04:56:34;18.05;;;7.75;;
61017;SDS011;48171;51.550;5.434;2023-05-20T04:59:00;17.77;;;7.85;;
61017;SDS011;48171;51.550;5.434;2023-05-20T05:01:25;18.73;;;7.95;;
61017;SDS011;48171;51.550;5.434;2023-05-20T05:03:51;15.10;;;7.93;;
61017;SDS011;48171;51.550;5.434;2023-05-20T05:06:16;16.48;;;7.75;;
61017;SDS011;48171;51.550;5.434;2023-05-20T05:08:42;22.40;;;8.38;;
61017;SDS011;48171;51.550;5.434;2023-05-20T05:11:07;20.45;;;8.43;;
61017;SDS011;48171;51.550;5.434;2023-05-20T05:13:32;15.13;;;7.88;;
61017;SDS011;48171;51.550;5.434;2023-05-20T05:15:58;20.42;;;7.45;;
61017;SDS011;48171;51.550;5.434;2023-05-20T05:18:24;19.90;;;7.90;;
61017;SDS011;48171;51.550;5.434;2023-05-20T05:20:56;15.77;;;7.72;;
61017;SDS011;48171;51.550;5.434;2023-05-20T05:23:23;15.65;;;7.93;;
61017;SDS011;48171;51.550;5.434;2023-05-20T05:25:51;15.85;;;7.70;;
61017;SDS011;48171;51.550;5.434;2023-05-20T05:28:17;16.42;;;7.63;;
61017;SDS011;48171;51.550;5.434;2023-05-20T05:30:42;22.13;;;9.90;;
61017;SDS011;48171;51.550;5.434;2023-05-20T05:33:07;16.58;;;8.07;;
61017;SDS011;48171;51.550;5.434;2023-05-20T05:35:32;17.17;;;8.55;;
61017;SDS011;48171;51.550;5.434;2023-05-20T05:37:58;20.58;;;8.65;;
61017;SDS011;48171;51.550;5.434;2023-05-20T05:40:23;17.33;;;8.18;;
61017;SDS011;48171;51.550;5.434;2023-05-20T05:42:48;18.65;;;8.68;;
61017;SDS011;48171;51.550;5.434;2023-05-20T05:45:14;13.95;;;7.38;;
61017;SDS011;48171;51.550;5.434;2023-05-20T05:47:39;19.25;;;8.02;;
61017;SDS011;48171;51.550;5.434;2023-05-20T05:50:04;19.20;;;7.70;;
61017;SDS011;48171;51.550;5.434;2023-05-20T05:52:30;16.98;;;8.30;;
61017;SDS011;48171;51.550;5.434;2023-05-20T05:54:55;18.42;;;8.57;;
61017;SDS011;48171;51.550;5.434;2023-05-20T05:57:21;15.57;;;8.35;;
61017;SDS011;48171;51.550;5.434;2023-05-20T05:59:46;15.43;;;8.35;;
61017;SDS011;48171;51.550;5.434;2023-05-20T06:02:12;17.92;;;8.30;;
61017;SDS011;48171;51.550;5.434;2023-05-20T06:04:38;14.27;;;7.25;;
61017;SDS011;48171;51.550;5.434;2023-05-20T06:07:03;17.27;;;7.88;;
61017;SDS011;48171;51.550;5.434;2023-05-20T06:09:29;16.65;;;8.27;;
61017;SDS011;48171;51.550;5.434;2023-05-20T06:11:54;16.38;;;8.38;;
61017;SDS011;48171;51.550;5.434;2023-05-20T06:14:20;14.75;;;8.32;;
61017;SDS011;48171;51.550;5.434;2023-05-20T06:16:45;15.20;;;7.93;;
61017;SDS011;48171;51.550;5.434;2023-05-20T06:19:11;17.23;;;8.00;;
61017;SDS011;48171;51.550;5.434;2023-05-20T06:21:36;18.80;;;8.05;;
61017;SDS011;48171;51.550;5.434;2023-05-20T06:24:02;15.13;;;7.93;;
61017;SDS011;48171;51.550;5.434;2023-05-20T06:26:28;15.75;;;8.20;;
61017;SDS011;48171;51.550;5.434;2023-05-20T06:28:53;13.27;;;7.55;;
61017;SDS011;48171;51.550;5.434;2023-05-20T06:31:18;16.80;;;7.63;;
61017;SDS011;48171;51.550;5.434;2023-05-20T06:33:44;17.75;;;8.05;;
61017;SDS011;48171;51.550;5.434;2023-05-20T06:36:09;13.70;;;8.02;;
61017;SDS011;48171;51.550;5.434;2023-05-20T06:38:35;15.15;;;7.65;;
61017;SDS011;48171;51.550;5.434;2023-05-20T06:41:01;13.35;;;8.05;;
61017;SDS011;48171;51.550;5.434;2023-05-20T06:43:26;16.00;;;7.65;;
61017;SDS011;48171;51.550;5.434;2023-05-20T06:45:52;13.80;;;7.72;;
61017;SDS011;48171;51.550;5.434;2023-05-20T06:48:18;13.43;;;8.10;;
61017;SDS011;48171;51.550;5.434;2023-05-20T06:50:43;15.93;;;7.47;;
61017;SDS011;48171;51.550;5.434;2023-05-20T06:53:08;18.40;;;8.00;;
61017;SDS011;48171;51.550;5.434;2023-05-20T06:55:34;17.45;;;7.47;;
61017;SDS011;48171;51.550;5.434;2023-05-20T06:57:59;20.50;;;8.13;;
61017;SDS011;48171;51.550;5.434;2023-05-20T07:00:24;14.32;;;7.43;;
61017;SDS011;48171;51.550;5.434;2023-05-20T07:02:50;18.25;;;8.77;;
61017;SDS011;48171;51.550;5.434;2023-05-20T07:05:15;12.73;;;7.30;;
61017;SDS011;48171;51.550;5.434;2023-05-20T07:07:40;15.25;;;8.15;;
61017;SDS011;48171;51.550;5.434;2023-05-20T07:10:06;13.38;;;7.00;;
61017;SDS011;48171;51.550;5.434;2023-05-20T07:12:32;19.90;;;7.47;;
61017;SDS011;48171;51.550;5.434;2023-05-20T07:14:57;12.98;;;7.22;;
61017;SDS011;48171;51.550;5.434;2023-05-20T07:17:23;11.23;;;6.40;;
61017;SDS011;48171;51.550;5.434;2023-05-20T07:19:49;13.25;;;7.38;;
61017;SDS011;48171;51.550;5.434;2023-05-20T07:22:14;11.77;;;6.43;;
61017;SDS011;48171;51.550;5.434;2023-05-20T07:24:39;13.40;;;6.72;;
61017;SDS011;48171;51.550;5.434;2023-05-20T07:27:05;13.02;;;6.82;;
61017;SDS011;48171;51.550;5.434;2023-05-20T07:29:30;12.00;;;6.43;;
61017;SDS011;48171;51.550;5.434;2023-05-20T07:31:55;15.60;;;6.93;;
61017;SDS011;48171;51.550;5.434;2023-05-20T07:34:20;11.45;;;6.38;;
61017;SDS011;48171;51.550;5.434;2023-05-20T07:36:46;12.50;;;5.95;;
61017;SDS011;48171;51.550;5.434;2023-05-20T07:39:12;12.55;;;6.35;;
61017;SDS011;48171;51.550;5.434;2023-05-20T07:41:37;12.40;;;6.20;;
61017;SDS011;48171;51.550;5.434;2023-05-20T07:44:05;12.73;;;6.65;;
61017;SDS011;48171;51.550;5.434;2023-05-20T07:46:33;11.85;;;6.97;;
61017;SDS011;48171;51.550;5.434;2023-05-20T07:48:58;14.27;;;6.45;;
61017;SDS011;48171;51.550;5.434;2023-05-20T07:51:24;11.70;;;6.22;;
61017;SDS011;48171;51.550;5.434;2023-05-20T07:53:49;14.85;;;6.43;;
61017;SDS011;48171;51.550;5.434;2023-05-20T07:56:15;18.23;;;7.22;;
61017;SDS011;48171;51.550;5.434;2023-05-20T07:58:40;14.85;;;6.38;;
61017;SDS011;48171;51.550;5.434;2023-05-20T08:01:06;14.25;;;6.20;;
61017;SDS011;48171;51.550;5.434;2023-05-20T08:03:33;10.98;;;6.50;;
61017;SDS011;48171;51.550;5.434;2023-05-20T08:05:58;12.05;;;6.53;;
61017;SDS011;48171;51.550;5.434;2023-05-20T08:08:24;10.50;;;6.47;;
61017;SDS011;48171;51.550;5.434;2023-05-20T08:10:49;13.90;;;6.32;;
61017;SDS011;48171;51.550;5.434;2023-05-20T08:13:15;16.60;;;6.45;;
61017;SDS011;48171;51.550;5.434;2023-05-20T08:15:40;11.18;;;5.82;;
61017;SDS011;48171;51.550;5.434;2023-05-20T08:18:06;12.45;;;6.40;;
61017;SDS011;48171;51.550;5.434;2023-05-20T08:20:31;13.40;;;6.10;;
61017;SDS011;48171;51.550;5.434;2023-05-20T08:22:56;11.85;;;6.30;;
61017;SDS011;48171;51.550;5.434;2023-05-20T08:25:22;11.18;;;5.80;;
61017;SDS011;48171;51.550;5.434;2023-05-20T08:27:47;14.40;;;6.25;;
61017;SDS011;48171;51.550;5.434;2023-05-20T08:30:13;12.70;;;6.38;;
61017;SDS011;48171;51.550;5.434;2023-05-20T08:32:38;14.52;;;6.53;;
61017;SDS011;48171;51.550;5.434;2023-05-20T08:35:03;12.57;;;6.88;;
61017;SDS011;48171;51.550;5.434;2023-05-20T08:37:29;14.35;;;6.60;;
61017;SDS011;48171;51.550;5.434;2023-05-20T08:39:55;11.07;;;6.18;;
61017;SDS011;48171;51.550;5.434;2023-05-20T08:42:23;12.20;;;6.55;;
61017;SDS011;48171;51.550;5.434;2023-05-20T08:44:50;18.13;;;6.63;;
61017;SDS011;48171;51.550;5.434;2023-05-20T08:47:16;12.55;;;6.25;;
61017;SDS011;48171;51.550;5.434;2023-05-20T08:49:43;10.68;;;6.35;;
61017;SDS011;48171;51.550;5.434;2023-05-20T08:52:09;11.10;;;6.10;;
61017;SDS011;48171;51.550;5.434;2023-05-20T08:54:42;11.80;;;6.10;;
61017;SDS011;48171;51.550;5.434;2023-05-20T08:57:10;13.88;;;5.70;;
61017;SDS011;48171;51.550;5.434;2023-05-20T08:59:37;12.23;;;5.40;;
61017;SDS011;48171;51.550;5.434;2023-05-20T09:02:07;15.68;;;5.70;;
61017;SDS011;48171;51.550;5.434;2023-05-20T09:04:33;13.15;;;5.78;;
61017;SDS011;48171;51.550;5.434;2023-05-20T09:06:59;12.23;;;5.90;;
61017;SDS011;48171;51.550;5.434;2023-05-20T09:09:24;10.55;;;6.00;;
61017;SDS011;48171;51.550;5.434;2023-05-20T09:11:49;12.20;;;5.90;;
61017;SDS011;48171;51.550;5.434;2023-05-20T09:14:14;9.90;;;6.07;;
61017;SDS011;48171;51.550;5.434;2023-05-20T09:16:40;11.23;;;5.70;;
61017;SDS011;48171;51.550;5.434;2023-05-20T09:19:05;11.68;;;5.75;;
61017;SDS011;48171;51.550;5.434;2023-05-20T09:21:31;12.05;;;6.05;;
61017;SDS011;48171;51.550;5.434;2023-05-20T09:23:57;12.13;;;5.65;;
61017;SDS011;48171;51.550;5.434;2023-05-20T09:26:26;12.48;;;6.25;;
61017;SDS011;48171;51.550;5.434;2023-05-20T09:28:54;15.00;;;6.07;;
61017;SDS011;48171;51.550;5.434;2023-05-20T09:31:20;13.95;;;5.82;;
61017;SDS011;48171;51.550;5.434;2023-05-20T09:33:50;13.98;;;5.93;;
61017;SDS011;48171;51.550;5.434;2023-05-20T09:36:16;11.35;;;5.20;;
61017;SDS011;48171;51.550;5.434;2023-05-20T09:38:45;11.68;;;5.97;;
61017;SDS011;48171;51.550;5.434;2023-05-20T09:41:11;14.77;;;6.72;;
61017;SDS011;48171;51.550;5.434;2023-05-20T09:43:41;13.52;;;6.82;;
61017;SDS011;48171;51.550;5.434;2023-05-20T09:46:06;11.43;;;6.55;;
61017;SDS011;48171;51.550;5.434;2023-05-20T09:48:34;15.55;;;6.50;;
61017;SDS011;48171;51.550;5.434;2023-05-20T09:51:03;11.93;;;6.70;;
61017;SDS011;48171;51.550;5.434;2023-05-20T09:53:29;11.35;;;6.15;;
61017;SDS011;48171;51.550;5.434;2023-05-20T09:55:55;10.38;;;6.32;;
61017;SDS011;48171;51.550;5.434;2023-05-20T09:58:21;12.05;;;6.28;;
61017;SDS011;48171;51.550;5.434;2023-05-20T10:00:47;11.73;;;6.80;;
61017;SDS011;48171;51.550;5.434;2023-05-20T10:03:12;11.63;;;7.18;;
61017;SDS011;48171;51.550;5.434;2023-05-20T10:05:39;14.07;;;6.88;;
61017;SDS011;48171;51.550;5.434;2023-05-20T10:16:35;12.55;;;5.78;;
61017;SDS011;48171;51.550;5.434;2023-05-20T10:19:27;11.93;;;5.60;;
61017;SDS011;48171;51.550;5.434;2023-05-20T10:21:59;13.85;;;6.47;;
61017;SDS011;48171;51.550;5.434;2023-05-20T10:24:29;9.82;;;5.65;;
61017;SDS011;48171;51.550;5.434;2023-05-20T10:26:56;11.95;;;5.55;;
61017;SDS011;48171;51.550;5.434;2023-05-20T10:29:23;13.02;;;6.05;;
61017;SDS011;48171;51.550;5.434;2023-05-20T10:31:49;13.15;;;6.05;;
61017;SDS011;48171;51.550;5.434;2023-05-20T10:34:17;13.18;;;6.03;;
61017;SDS011;48171;51.550;5.434;2023-05-20T10:36:44;12.40;;;5.80;;
61017;SDS011;48171;51.550;5.434;2023-05-20T10:39:15;11.45;;;5.75;;
61017;SDS011;48171;51.550;5.434;2023-05-20T10:41:41;15.90;;;5.50;;
61017;SDS011;48171;51.550;5.434;2023-05-20T10:44:06;14.13;;;5.47;;
61017;SDS011;48171;51.550;5.434;2023-05-20T10:46:33;11.02;;;6.03;;
61017;SDS011;48171;51.550;5.434;2023-05-20T10:49:00;12.43;;;6.05;;
61017;SDS011;48171;51.550;5.434;2023-05-20T10:51:27;12.15;;;6.32;;
61017;SDS011;48171;51.550;5.434;2023-05-20T10:53:54;10.35;;;5.88;;
61017;SDS011;48171;51.550;5.434;2023-05-20T10:56:21;13.48;;;6.45;;
61017;SDS011;48171;51.550;5.434;2023-05-20T10:58:48;12.75;;;6.55;;
61017;SDS011;48171;51.550;5.434;2023-05-20T11:01:14;14.55;;;6.32;;
61017;SDS011;48171;51.550;5.434;2023-05-20T11:03:40;14.45;;;6.53;;
61017;SDS011;48171;51.550;5.434;2023-05-20T11:06:14;9.70;;;6.05;;
61017;SDS011;48171;51.550;5.434;2023-05-20T11:08:40;9.88;;;5.65;;
61017;SDS011;48171;51.550;5.434;2023-05-20T11:11:06;12.70;;;5.85;;
61017;SDS011;48171;51.550;5.434;2023-05-20T11:13:31;13.93;;;6.10;;
61017;SDS011;48171;51.550;5.434;2023-05-20T11:15:57;9.77;;;5.93;;
61017;SDS011;48171;51.550;5.434;2023-05-20T11:18:23;11.73;;;6.45;;
61017;SDS011;48171;51.550;5.434;2023-05-20T11:20:54;13.88;;;6.28;;
61017;SDS011;48171;51.550;5.434;2023-05-20T11:23:19;10.63;;;6.00;;
61017;SDS011;48171;51.550;5.434;2023-05-20T11:25:48;10.93;;;5.28;;
61017;SDS011;48171;51.550;5.434;2023-05-20T11:28:14;11.75;;;5.82;;
61017;SDS011;48171;51.550;5.434;2023-05-20T11:30:43;11.52;;;6.75;;
61017;SDS011;48171;51.550;5.434;2023-05-20T11:33:10;11.90;;;6.10;;
61017;SDS011;48171;51.550;5.434;2023-05-20T11:35:36;8.80;;;5.40;;
61017;SDS011;48171;51.550;5.434;2023-05-20T11:38:09;12.23;;;5.47;;
61017;SDS011;48171;51.550;5.434;2023-05-20T11:40:34;11.32;;;4.75;;
61017;SDS011;48171;51.550;5.434;2023-05-20T11:42:59;8.93;;;5.07;;
61017;SDS011;48171;51.550;5.434;2023-05-20T11:45:26;12.30;;;5.55;;
61017;SDS011;48171;51.550;5.434;2023-05-20T11:48:01;12.32;;;5.47;;
61017;SDS011;48171;51.550;5.434;2023-05-20T11:50:28;9.23;;;5.00;;
61017;SDS011;48171;51.550;5.434;2023-05-20T11:52:57;10.55;;;5.65;;
61017;SDS011;48171;51.550;5.434;2023-05-20T11:55:24;11.25;;;5.70;;
61017;SDS011;48171;51.550;5.434;2023-05-20T11:57:50;8.13;;;4.80;;
61017;SDS011;48171;51.550;5.434;2023-05-20T12:00:16;10.45;;;5.00;;
61017;SDS011;48171;51.550;5.434;2023-05-20T12:02:41;10.73;;;5.90;;
61017;SDS011;48171;51.550;5.434;2023-05-20T12:05:07;8.63;;;5.25;;
61017;SDS011;48171;51.550;5.434;2023-05-20T12:07:32;9.35;;;5.40;;
61017;SDS011;48171;51.550;5.434;2023-05-20T12:09:58;8.75;;;4.72;;
61017;SDS011;48171;51.550;5.434;2023-05-20T12:12:23;9.52;;;5.10;;
61017;SDS011;48171;51.550;5.434;2023-05-20T12:14:49;9.23;;;5.38;;
61017;SDS011;48171;51.550;5.434;2023-05-20T12:17:15;10.85;;;5.50;;
61017;SDS011;48171;51.550;5.434;2023-05-20T12:19:40;10.73;;;5.53;;
61017;SDS011;48171;51.550;5.434;2023-05-20T12:22:05;12.25;;;5.60;;
61017;SDS011;48171;51.550;5.434;2023-05-20T12:24:30;11.18;;;5.30;;
61017;SDS011;48171;51.550;5.434;2023-05-20T12:26:56;13.77;;;6.18;;
61017;SDS011;48171;51.550;5.434;2023-05-20T12:29:21;10.77;;;5.47;;
61017;SDS011;48171;51.550;5.434;2023-05-20T12:31:46;11.60;;;4.97;;
61017;SDS011;48171;51.550;5.434;2023-05-20T12:34:12;9.05;;;5.28;;
61017;SDS011;48171;51.550;5.434;2023-05-20T12:36:37;10.43;;;5.13;;
61017;SDS011;48171;51.550;5.434;2023-05-20T12:39:02;11.60;;;5.30;;
61017;SDS011;48171;51.550;5.434;2023-05-20T12:41:28;13.13;;;5.78;;
61017;SDS011;48171;51.550;5.434;2023-05-20T12:43:53;10.48;;;5.50;;
61017;SDS011;48171;51.550;5.434;2023-05-20T12:46:18;10.30;;;5.38;;
61017;SDS011;48171;51.550;5.434;2023-05-20T12:48:44;12.52;;;6.03;;
61017;SDS011;48171;51.550;5.434;2023-05-20T12:51:09;10.63;;;5.55;;
61017;SDS011;48171;51.550;5.434;2023-05-20T12:53:35;10.07;;;5.68;;
61017;SDS011;48171;51.550;5.434;2023-05-20T12:56:00;11.50;;;5.70;;
61017;SDS011;48171;51.550;5.434;2023-05-20T12:58:25;8.98;;;5.45;;
61017;SDS011;48171;51.550;5.434;2023-05-20T13:00:51;10.77;;;4.82;;
61017;SDS011;48171;51.550;5.434;2023-05-20T13:03:16;15.85;;;6.03;;
61017;SDS011;48171;51.550;5.434;2023-05-20T13:05:41;11.38;;;5.82;;
61017;SDS011;48171;51.550;5.434;2023-05-20T13:08:07;9.23;;;5.72;;
61017;SDS011;48171;51.550;5.434;2023-05-20T13:10:34;13.50;;;5.93;;
61017;SDS011;48171;51.550;5.434;2023-05-20T13:12:59;13.32;;;6.28;;
61017;SDS011;48171;51.550;5.434;2023-05-20T13:15:24;12.82;;;6.10;;
61017;SDS011;48171;51.550;5.434;2023-05-20T13:17:50;10.98;;;5.70;;
61017;SDS011;48171;51.550;5.434;2023-05-20T13:20:15;11.38;;;5.97;;
61017;SDS011;48171;51.550;5.434;2023-05-20T13:22:40;11.45;;;5.43;;
61017;SDS011;48171;51.550;5.434;2023-05-20T13:25:06;9.43;;;5.43;;
61017;SDS011;48171;51.550;5.434;2023-05-20T13:27:32;10.07;;;5.10;;
61017;SDS011;48171;51.550;5.434;2023-05-20T13:29:58;10.13;;;5.70;;
61017;SDS011;48171;51.550;5.434;2023-05-20T13:32:25;10.40;;;5.20;;
61017;SDS011;48171;51.550;5.434;2023-05-20T13:34:51;8.98;;;5.60;;
61017;SDS011;48171;51.550;5.434;2023-05-20T13:37:16;10.90;;;4.55;;
61017;SDS011;48171;51.550;5.434;2023-05-20T13:39:41;10.38;;;5.03;;
61017;SDS011;48171;51.550;5.434;2023-05-20T13:42:07;13.57;;;6.13;;
61017;SDS011;48171;51.550;5.434;2023-05-20T13:44:32;8.85;;;5.05;;
61017;SDS011;48171;51.550;5.434;2023-05-20T13:46:57;9.90;;;5.05;;
61017;SDS011;48171;51.550;5.434;2023-05-20T13:49:22;9.35;;;5.15;;
61017;SDS011;48171;51.550;5.434;2023-05-20T13:51:49;9.88;;;5.10;;
61017;SDS011;48171;51.550;5.434;2023-05-20T13:54:15;11.48;;;5.47;;
61017;SDS011;48171;51.550;5.434;2023-05-20T13:56:40;9.00;;;5.18;;
61017;SDS011;48171;51.550;5.434;2023-05-20T13:59:06;9.68;;;5.03;;
61017;SDS011;48171;51.550;5.434;2023-05-20T14:01:31;9.32;;;5.05;;
61017;SDS011;48171;51.550;5.434;2023-05-20T14:03:57;10.05;;;4.93;;
61017;SDS011;48171;51.550;5.434;2023-05-20T14:06:23;9.63;;;5.28;;
61017;SDS011;48171;51.550;5.434;2023-05-20T14:08:48;10.40;;;4.95;;
61017;SDS011;48171;51.550;5.434;2023-05-20T14:11:14;8.95;;;5.47;;
61017;SDS011;48171;51.550;5.434;2023-05-20T14:13:39;10.32;;;5.18;;
61017;SDS011;48171;51.550;5.434;2023-05-20T14:16:05;10.80;;;5.05;;
61017;SDS011;48171;51.550;5.434;2023-05-20T14:18:30;9.30;;;5.75;;
61017;SDS011;48171;51.550;5.434;2023-05-20T14:20:56;9.18;;;5.13;;
61017;SDS011;48171;51.550;5.434;2023-05-20T14:23:21;10.02;;;5.50;;
61017;SDS011;48171;51.550;5.434;2023-05-20T14:25:46;11.40;;;5.18;;
61017;SDS011;48171;51.550;5.434;2023-05-20T14:28:12;13.75;;;5.57;;
61017;SDS011;48171;51.550;5.434;2023-05-20T14:30:37;13.20;;;5.75;;
61017;SDS011;48171;51.550;5.434;2023-05-20T14:33:02;10.32;;;5.60;;
61017;SDS011;48171;51.550;5.434;2023-05-20T14:35:28;8.45;;;4.82;;
61017;SDS011;48171;51.550;5.434;2023-05-20T14:37:53;9.18;;;5.47;;
61017;SDS011;48171;51.550;5.434;2023-05-20T14:40:18;13.77;;;5.25;;